Terminal Aerodrome Forecast
Issued by NWS

Home | Current Version | Previous Version | Text Only | Print | Product List | Glossary On
Versions: 1 2 3 4 5 6 7 8 9 10 11 12 13 14 15 16 17 18 19 20 21 22 23 24 25 26 27 28 29 30 31 32
391
FTUS43 KPAH 272340
TAFCGI
TAF
KCGI 272340Z 2800/2824 VRB06KT P6SM VCSH SCT035 BKN050
     FM280600 VRB03KT 4SM BR VCTS SCT020 OVC050CB
      TEMPO 2808/2812 1SM TSRA BR OVC012CB
     FM281500 28004KT P6SM SCT040 BKN100=

USA.gov is the U.S. government's official web portal to all federal, state and local government web resources and services.